sensor_id;sensor_type;location;lat;lon;timestamp;P1;durP1;ratioP1;P2;durP2;ratioP2
40503;SDS011;42292;49.048;8.374;2022-10-04T00:01:01;21.27;;;12.13;;
40503;SDS011;42292;49.048;8.374;2022-10-04T00:03:42;16.97;;;12.33;;
40503;SDS011;42292;49.048;8.374;2022-10-04T00:06:12;19.17;;;11.87;;
40503;SDS011;42292;49.048;8.374;2022-10-04T00:08:44;23.38;;;12.70;;
40503;SDS011;42292;49.048;8.374;2022-10-04T00:13:53;16.35;;;12.07;;
40503;SDS011;42292;49.048;8.374;2022-10-04T00:16:26;18.17;;;12.35;;
40503;SDS011;42292;49.048;8.374;2022-10-04T00:24:24;15.90;;;10.70;;
40503;SDS011;42292;49.048;8.374;2022-10-04T00:29:38;17.88;;;11.75;;
40503;SDS011;42292;49.048;8.374;2022-10-04T00:34:47;20.55;;;11.80;;
40503;SDS011;42292;49.048;8.374;2022-10-04T00:37:13;16.50;;;12.18;;
40503;SDS011;42292;49.048;8.374;2022-10-04T00:39:41;19.30;;;12.00;;
40503;SDS011;42292;49.048;8.374;2022-10-04T00:50:27;18.10;;;11.13;;
40503;SDS011;42292;49.048;8.374;2022-10-04T00:52:58;18.08;;;11.60;;
40503;SDS011;42292;49.048;8.374;2022-10-04T00:58:02;17.80;;;11.50;;
40503;SDS011;42292;49.048;8.374;2022-10-04T01:00:33;17.60;;;12.40;;
40503;SDS011;42292;49.048;8.374;2022-10-04T01:03:02;19.02;;;12.00;;
40503;SDS011;42292;49.048;8.374;2022-10-04T01:05:39;17.30;;;11.93;;
40503;SDS011;42292;49.048;8.374;2022-10-04T01:08:11;18.15;;;11.93;;
40503;SDS011;42292;49.048;8.374;2022-10-04T01:10:41;18.10;;;12.80;;
40503;SDS011;42292;49.048;8.374;2022-10-04T01:13:34;18.20;;;11.73;;
40503;SDS011;42292;49.048;8.374;2022-10-04T01:16:08;16.95;;;11.25;;
40503;SDS011;42292;49.048;8.374;2022-10-04T01:18:53;20.45;;;12.57;;
40503;SDS011;42292;49.048;8.374;2022-10-04T01:21:27;14.95;;;12.00;;
40503;SDS011;42292;49.048;8.374;2022-10-04T01:31:48;17.52;;;12.63;;
40503;SDS011;42292;49.048;8.374;2022-10-04T01:34:19;17.70;;;12.10;;
40503;SDS011;42292;49.048;8.374;2022-10-04T01:36:47;18.67;;;12.43;;
40503;SDS011;42292;49.048;8.374;2022-10-04T01:39:16;15.07;;;11.70;;
40503;SDS011;42292;49.048;8.374;2022-10-04T01:50:32;18.75;;;12.52;;
40503;SDS011;42292;49.048;8.374;2022-10-04T01:53:36;17.00;;;12.80;;
40503;SDS011;42292;49.048;8.374;2022-10-04T01:56:04;20.20;;;13.32;;
40503;SDS011;42292;49.048;8.374;2022-10-04T01:58:38;16.15;;;12.20;;
40503;SDS011;42292;49.048;8.374;2022-10-04T02:01:14;17.65;;;12.73;;
40503;SDS011;42292;49.048;8.374;2022-10-04T02:06:29;19.52;;;13.27;;
40503;SDS011;42292;49.048;8.374;2022-10-04T02:09:05;19.15;;;12.98;;
40503;SDS011;42292;49.048;8.374;2022-10-04T02:11:44;16.05;;;12.98;;
40503;SDS011;42292;49.048;8.374;2022-10-04T02:14:17;17.02;;;12.98;;
40503;SDS011;42292;49.048;8.374;2022-10-04T02:16:49;19.25;;;13.15;;
40503;SDS011;42292;49.048;8.374;2022-10-04T02:19:17;17.05;;;12.73;;
40503;SDS011;42292;49.048;8.374;2022-10-04T02:21:52;20.25;;;12.57;;
40503;SDS011;42292;49.048;8.374;2022-10-04T02:24:21;20.67;;;14.23;;
40503;SDS011;42292;49.048;8.374;2022-10-04T02:26:48;23.05;;;16.02;;
40503;SDS011;42292;49.048;8.374;2022-10-04T02:29:21;20.60;;;14.93;;
40503;SDS011;42292;49.048;8.374;2022-10-04T02:31:50;22.02;;;16.40;;
40503;SDS011;42292;49.048;8.374;2022-10-04T02:34:34;22.25;;;16.48;;
40503;SDS011;42292;49.048;8.374;2022-10-04T02:37:04;21.85;;;16.75;;
40503;SDS011;42292;49.048;8.374;2022-10-04T02:39:35;30.88;;;22.80;;
40503;SDS011;42292;49.048;8.374;2022-10-04T02:42:08;23.58;;;19.45;;
40503;SDS011;42292;49.048;8.374;2022-10-04T02:44:40;24.00;;;19.70;;
40503;SDS011;42292;49.048;8.374;2022-10-04T02:47:14;26.63;;;19.08;;
40503;SDS011;42292;49.048;8.374;2022-10-04T02:49:49;24.23;;;18.58;;
40503;SDS011;42292;49.048;8.374;2022-10-04T02:52:30;23.10;;;16.40;;
40503;SDS011;42292;49.048;8.374;2022-10-04T02:57:35;20.97;;;14.63;;
40503;SDS011;42292;49.048;8.374;2022-10-04T03:02:39;19.85;;;14.02;;
40503;SDS011;42292;49.048;8.374;2022-10-04T03:05:08;17.67;;;13.52;;
40503;SDS011;42292;49.048;8.374;2022-10-04T03:07:36;19.95;;;13.27;;
40503;SDS011;42292;49.048;8.374;2022-10-04T03:10:10;22.00;;;14.40;;
40503;SDS011;42292;49.048;8.374;2022-10-04T03:12:38;18.83;;;12.93;;
40503;SDS011;42292;49.048;8.374;2022-10-04T03:15:08;19.63;;;13.25;;
40503;SDS011;42292;49.048;8.374;2022-10-04T03:17:38;19.23;;;13.90;;
40503;SDS011;42292;49.048;8.374;2022-10-04T03:20:06;18.77;;;13.82;;
40503;SDS011;42292;49.048;8.374;2022-10-04T03:22:38;21.25;;;12.98;;
40503;SDS011;42292;49.048;8.374;2022-10-04T03:25:08;19.63;;;12.88;;
40503;SDS011;42292;49.048;8.374;2022-10-04T03:27:42;18.10;;;13.13;;
40503;SDS011;42292;49.048;8.374;2022-10-04T03:30:12;20.85;;;13.25;;
40503;SDS011;42292;49.048;8.374;2022-10-04T03:32:38;18.88;;;12.50;;
40503;SDS011;42292;49.048;8.374;2022-10-04T03:35:06;24.67;;;13.50;;
40503;SDS011;42292;49.048;8.374;2022-10-04T03:37:44;26.45;;;14.80;;
40503;SDS011;42292;49.048;8.374;2022-10-04T03:40:12;20.85;;;13.25;;
40503;SDS011;42292;49.048;8.374;2022-10-04T03:42:39;17.10;;;12.02;;
40503;SDS011;42292;49.048;8.374;2022-10-04T03:45:10;18.20;;;13.23;;
40503;SDS011;42292;49.048;8.374;2022-10-04T03:47:42;21.25;;;14.75;;
40503;SDS011;42292;49.048;8.374;2022-10-04T03:50:23;21.23;;;14.38;;
40503;SDS011;42292;49.048;8.374;2022-10-04T03:53:04;22.95;;;16.55;;
40503;SDS011;42292;49.048;8.374;2022-10-04T03:55:37;23.90;;;16.60;;
40503;SDS011;42292;49.048;8.374;2022-10-04T03:58:08;20.55;;;15.63;;
40503;SDS011;42292;49.048;8.374;2022-10-04T04:00:38;21.60;;;14.30;;
40503;SDS011;42292;49.048;8.374;2022-10-04T04:03:08;20.70;;;14.77;;
40503;SDS011;42292;49.048;8.374;2022-10-04T04:05:45;18.10;;;13.05;;
40503;SDS011;42292;49.048;8.374;2022-10-04T04:08:34;17.75;;;12.75;;
40503;SDS011;42292;49.048;8.374;2022-10-04T04:11:03;19.35;;;13.40;;
40503;SDS011;42292;49.048;8.374;2022-10-04T04:13:41;17.90;;;12.95;;
40503;SDS011;42292;49.048;8.374;2022-10-04T04:16:23;15.85;;;12.45;;
40503;SDS011;42292;49.048;8.374;2022-10-04T04:18:52;25.15;;;14.20;;
40503;SDS011;42292;49.048;8.374;2022-10-04T04:21:23;17.20;;;12.68;;
40503;SDS011;42292;49.048;8.374;2022-10-04T04:23:53;18.63;;;13.02;;
40503;SDS011;42292;49.048;8.374;2022-10-04T04:26:34;16.83;;;11.73;;
40503;SDS011;42292;49.048;8.374;2022-10-04T04:31:45;29.23;;;14.20;;
40503;SDS011;42292;49.048;8.374;2022-10-04T04:34:27;20.25;;;13.43;;
40503;SDS011;42292;49.048;8.374;2022-10-04T04:36:58;16.15;;;12.30;;
40503;SDS011;42292;49.048;8.374;2022-10-04T04:39:25;14.93;;;11.55;;
40503;SDS011;42292;49.048;8.374;2022-10-04T04:44:26;18.38;;;12.57;;
40503;SDS011;42292;49.048;8.374;2022-10-04T04:46:54;20.15;;;13.27;;
40503;SDS011;42292;49.048;8.374;2022-10-04T04:49:20;18.70;;;13.35;;
40503;SDS011;42292;49.048;8.374;2022-10-04T04:51:48;18.30;;;13.35;;
40503;SDS011;42292;49.048;8.374;2022-10-04T04:54:19;18.00;;;13.27;;
40503;SDS011;42292;49.048;8.374;2022-10-04T04:56:50;20.00;;;13.45;;
40503;SDS011;42292;49.048;8.374;2022-10-04T04:59:20;17.27;;;11.82;;
40503;SDS011;42292;49.048;8.374;2022-10-04T05:01:51;17.90;;;13.85;;
40503;SDS011;42292;49.048;8.374;2022-10-04T05:06:58;20.35;;;13.68;;
40503;SDS011;42292;49.048;8.374;2022-10-04T05:09:30;17.92;;;12.82;;
40503;SDS011;42292;49.048;8.374;2022-10-04T05:12:00;18.27;;;12.77;;
40503;SDS011;42292;49.048;8.374;2022-10-04T05:14:47;16.58;;;12.10;;
40503;SDS011;42292;49.048;8.374;2022-10-04T05:17:26;15.88;;;11.95;;
40503;SDS011;42292;49.048;8.374;2022-10-04T05:19:58;16.23;;;12.52;;
40503;SDS011;42292;49.048;8.374;2022-10-04T05:22:28;17.05;;;12.60;;
40503;SDS011;42292;49.048;8.374;2022-10-04T05:24:56;19.27;;;12.60;;
40503;SDS011;42292;49.048;8.374;2022-10-04T05:27:37;15.35;;;11.70;;
40503;SDS011;42292;49.048;8.374;2022-10-04T05:30:05;14.77;;;11.95;;
40503;SDS011;42292;49.048;8.374;2022-10-04T05:35:21;13.95;;;11.30;;
40503;SDS011;42292;49.048;8.374;2022-10-04T05:42:55;15.60;;;12.05;;
40503;SDS011;42292;49.048;8.374;2022-10-04T05:45:25;18.70;;;13.17;;
40503;SDS011;42292;49.048;8.374;2022-10-04T05:47:55;16.17;;;13.57;;
40503;SDS011;42292;49.048;8.374;2022-10-04T06:18:01;11.32;;;9.48;;
40503;SDS011;42292;49.048;8.374;2022-10-04T06:23:16;12.05;;;9.73;;
40503;SDS011;42292;49.048;8.374;2022-10-04T06:26:19;10.90;;;9.07;;
40503;SDS011;42292;49.048;8.374;2022-10-04T06:28:43;12.25;;;9.40;;
40503;SDS011;42292;49.048;8.374;2022-10-04T07:06:26;10.23;;;7.90;;
40503;SDS011;42292;49.048;8.374;2022-10-04T07:08:57;12.65;;;9.00;;
40503;SDS011;42292;49.048;8.374;2022-10-04T07:14:24;14.15;;;8.77;;
40503;SDS011;42292;49.048;8.374;2022-10-04T07:16:56;12.13;;;9.23;;
40503;SDS011;42292;49.048;8.374;2022-10-04T07:19:45;13.02;;;8.68;;
40503;SDS011;42292;49.048;8.374;2022-10-04T07:24:50;10.85;;;9.00;;
40503;SDS011;42292;49.048;8.374;2022-10-04T07:33:28;10.00;;;7.80;;
40503;SDS011;42292;49.048;8.374;2022-10-04T07:36:16;10.35;;;7.55;;
40503;SDS011;42292;49.048;8.374;2022-10-04T07:38:52;11.35;;;7.88;;
40503;SDS011;42292;49.048;8.374;2022-10-04T07:42:06;10.40;;;7.20;;
40503;SDS011;42292;49.048;8.374;2022-10-04T07:49:43;17.38;;;11.38;;
40503;SDS011;42292;49.048;8.374;2022-10-04T08:00:35;10.25;;;7.43;;
40503;SDS011;42292;49.048;8.374;2022-10-04T08:05:47;10.75;;;7.50;;
40503;SDS011;42292;49.048;8.374;2022-10-04T08:17:06;10.97;;;7.60;;
40503;SDS011;42292;49.048;8.374;2022-10-04T08:38:42;9.10;;;6.50;;
40503;SDS011;42292;49.048;8.374;2022-10-04T08:52:36;9.00;;;7.38;;
40503;SDS011;42292;49.048;8.374;2022-10-04T09:15:53;15.27;;;12.43;;
40503;SDS011;42292;49.048;8.374;2022-10-04T09:21:27;17.83;;;15.85;;
40503;SDS011;42292;49.048;8.374;2022-10-04T09:37:20;17.75;;;14.63;;
40503;SDS011;42292;49.048;8.374;2022-10-04T09:42:54;17.60;;;14.75;;
40503;SDS011;42292;49.048;8.374;2022-10-04T10:02:17;18.85;;;14.75;;
40503;SDS011;42292;49.048;8.374;2022-10-04T10:04:54;18.00;;;15.15;;
40503;SDS011;42292;49.048;8.374;2022-10-04T10:07:39;20.75;;;14.52;;
40503;SDS011;42292;49.048;8.374;2022-10-04T10:17:12;17.20;;;14.75;;
40503;SDS011;42292;49.048;8.374;2022-10-04T10:20:10;18.90;;;14.80;;
40503;SDS011;42292;49.048;8.374;2022-10-04T10:26:05;15.18;;;13.43;;
40503;SDS011;42292;49.048;8.374;2022-10-04T10:40:26;11.73;;;9.90;;
40503;SDS011;42292;49.048;8.374;2022-10-04T11:28:18;10.35;;;7.68;;
40503;SDS011;42292;49.048;8.374;2022-10-04T11:36:27;9.50;;;7.38;;
40503;SDS011;42292;49.048;8.374;2022-10-04T11:50:36;8.98;;;7.05;;
40503;SDS011;42292;49.048;8.374;2022-10-04T11:56:29;10.90;;;7.00;;
40503;SDS011;42292;49.048;8.374;2022-10-04T12:04:29;8.80;;;6.65;;
40503;SDS011;42292;49.048;8.374;2022-10-04T12:10:37;11.70;;;7.78;;
40503;SDS011;42292;49.048;8.374;2022-10-04T12:43:29;5.63;;;4.90;;
40503;SDS011;42292;49.048;8.374;2022-10-04T12:51:34;6.22;;;4.82;;
40503;SDS011;42292;49.048;8.374;2022-10-04T12:57:04;6.10;;;4.13;;
40503;SDS011;42292;49.048;8.374;2022-10-04T13:08:01;5.65;;;3.70;;
40503;SDS011;42292;49.048;8.374;2022-10-04T13:10:56;4.38;;;3.45;;
40503;SDS011;42292;49.048;8.374;2022-10-04T13:16:38;4.07;;;2.90;;
40503;SDS011;42292;49.048;8.374;2022-10-04T13:27:45;4.50;;;2.50;;
40503;SDS011;42292;49.048;8.374;2022-10-04T13:30:36;4.55;;;2.47;;
40503;SDS011;42292;49.048;8.374;2022-10-04T13:33:31;4.60;;;2.50;;
40503;SDS011;42292;49.048;8.374;2022-10-04T13:38:42;4.07;;;2.40;;
40503;SDS011;42292;49.048;8.374;2022-10-04T13:44:05;4.55;;;2.72;;
40503;SDS011;42292;49.048;8.374;2022-10-04T13:52:25;6.63;;;3.30;;
40503;SDS011;42292;49.048;8.374;2022-10-04T13:55:36;5.13;;;2.80;;
40503;SDS011;42292;49.048;8.374;2022-10-04T14:29:07;7.13;;;2.60;;
40503;SDS011;42292;49.048;8.374;2022-10-04T14:34:44;4.53;;;3.33;;
40503;SDS011;42292;49.048;8.374;2022-10-04T15:18:23;5.05;;;2.50;;
40503;SDS011;42292;49.048;8.374;2022-10-04T15:20:57;3.30;;;2.70;;
40503;SDS011;42292;49.048;8.374;2022-10-04T15:23:31;6.63;;;3.00;;
40503;SDS011;42292;49.048;8.374;2022-10-04T15:28:51;4.38;;;2.60;;
40503;SDS011;42292;49.048;8.374;2022-10-04T15:34:44;5.78;;;2.50;;
40503;SDS011;42292;49.048;8.374;2022-10-04T15:37:45;6.68;;;3.00;;
40503;SDS011;42292;49.048;8.374;2022-10-04T15:40:40;3.17;;;2.25;;
40503;SDS011;42292;49.048;8.374;2022-10-04T15:43:40;3.75;;;2.38;;
40503;SDS011;42292;49.048;8.374;2022-10-04T15:46:31;4.40;;;2.87;;
40503;SDS011;42292;49.048;8.374;2022-10-04T15:56:59;6.07;;;4.63;;
40503;SDS011;42292;49.048;8.374;2022-10-04T15:59:43;5.07;;;3.50;;
40503;SDS011;42292;49.048;8.374;2022-10-04T16:37:38;6.25;;;4.20;;
40503;SDS011;42292;49.048;8.374;2022-10-04T16:48:51;7.60;;;5.60;;
40503;SDS011;42292;49.048;8.374;2022-10-04T17:21:23;9.68;;;7.28;;
40503;SDS011;42292;49.048;8.374;2022-10-04T17:32:43;17.27;;;14.55;;
40503;SDS011;42292;49.048;8.374;2022-10-04T17:52:16;7.57;;;6.70;;
40503;SDS011;42292;49.048;8.374;2022-10-04T17:55:18;12.63;;;7.97;;
40503;SDS011;42292;49.048;8.374;2022-10-04T17:58:00;9.90;;;7.60;;
40503;SDS011;42292;49.048;8.374;2022-10-04T18:00:56;12.52;;;10.15;;
40503;SDS011;42292;49.048;8.374;2022-10-04T18:06:35;19.90;;;17.63;;
40503;SDS011;42292;49.048;8.374;2022-10-04T18:09:33;15.88;;;14.10;;
40503;SDS011;42292;49.048;8.374;2022-10-04T18:17:50;13.65;;;10.02;;
40503;SDS011;42292;49.048;8.374;2022-10-04T18:20:34;14.57;;;11.23;;
40503;SDS011;42292;49.048;8.374;2022-10-04T18:23:18;12.98;;;10.77;;
40503;SDS011;42292;49.048;8.374;2022-10-04T18:25:53;12.57;;;10.87;;
40503;SDS011;42292;49.048;8.374;2022-10-04T18:28:23;13.48;;;11.88;;
40503;SDS011;42292;49.048;8.374;2022-10-04T18:33:23;11.77;;;10.07;;
40503;SDS011;42292;49.048;8.374;2022-10-04T18:41:41;13.10;;;10.93;;
40503;SDS011;42292;49.048;8.374;2022-10-04T18:47:17;16.40;;;12.77;;
40503;SDS011;42292;49.048;8.374;2022-10-04T18:49:51;27.40;;;21.33;;
40503;SDS011;42292;49.048;8.374;2022-10-04T18:57:42;33.10;;;24.52;;
40503;SDS011;42292;49.048;8.374;2022-10-04T19:00:38;27.02;;;20.88;;
40503;SDS011;42292;49.048;8.374;2022-10-04T19:03:49;33.10;;;24.67;;
40503;SDS011;42292;49.048;8.374;2022-10-04T19:06:24;50.58;;;37.58;;
40503;SDS011;42292;49.048;8.374;2022-10-04T19:11:52;48.43;;;35.77;;
40503;SDS011;42292;49.048;8.374;2022-10-04T19:14:31;50.90;;;37.97;;
40503;SDS011;42292;49.048;8.374;2022-10-04T19:25:36;17.08;;;13.57;;
40503;SDS011;42292;49.048;8.374;2022-10-04T19:28:09;16.55;;;13.43;;
40503;SDS011;42292;49.048;8.374;2022-10-04T19:30:56;18.58;;;13.82;;
40503;SDS011;42292;49.048;8.374;2022-10-04T19:52:29;18.83;;;13.97;;
40503;SDS011;42292;49.048;8.374;2022-10-04T19:55:14;16.35;;;14.20;;
40503;SDS011;42292;49.048;8.374;2022-10-04T19:57:49;17.07;;;14.73;;
40503;SDS011;42292;49.048;8.374;2022-10-04T20:00:17;17.35;;;14.10;;
40503;SDS011;42292;49.048;8.374;2022-10-04T20:02:46;17.13;;;14.05;;
40503;SDS011;42292;49.048;8.374;2022-10-04T20:05:12;19.23;;;16.20;;
40503;SDS011;42292;49.048;8.374;2022-10-04T20:07:39;20.08;;;15.48;;
40503;SDS011;42292;49.048;8.374;2022-10-04T20:10:31;18.80;;;16.30;;
40503;SDS011;42292;49.048;8.374;2022-10-04T20:15:42;20.00;;;15.67;;
40503;SDS011;42292;49.048;8.374;2022-10-04T20:31:04;21.30;;;16.88;;
40503;SDS011;42292;49.048;8.374;2022-10-04T20:36:10;17.48;;;14.38;;
40503;SDS011;42292;49.048;8.374;2022-10-04T20:38:56;15.85;;;14.07;;
40503;SDS011;42292;49.048;8.374;2022-10-04T20:44:50;18.27;;;14.68;;
40503;SDS011;42292;49.048;8.374;2022-10-04T20:49:44;17.00;;;14.07;;
40503;SDS011;42292;49.048;8.374;2022-10-04T20:52:13;15.88;;;13.20;;
40503;SDS011;42292;49.048;8.374;2022-10-04T20:54:49;16.85;;;12.93;;
40503;SDS011;42292;49.048;8.374;2022-10-04T20:57:17;17.90;;;14.07;;
40503;SDS011;42292;49.048;8.374;2022-10-04T20:59:52;20.85;;;15.63;;
40503;SDS011;42292;49.048;8.374;2022-10-04T21:02:19;22.30;;;15.48;;
40503;SDS011;42292;49.048;8.374;2022-10-04T21:04:52;20.92;;;15.73;;
40503;SDS011;42292;49.048;8.374;2022-10-04T21:07:22;19.50;;;15.73;;
40503;SDS011;42292;49.048;8.374;2022-10-04T21:09:49;19.92;;;16.17;;
40503;SDS011;42292;49.048;8.374;2022-10-04T21:12:28;19.75;;;15.73;;
40503;SDS011;42292;49.048;8.374;2022-10-04T21:15:04;21.30;;;16.10;;
40503;SDS011;42292;49.048;8.374;2022-10-04T21:18:02;20.65;;;15.45;;
40503;SDS011;42292;49.048;8.374;2022-10-04T21:20:47;20.10;;;15.50;;
40503;SDS011;42292;49.048;8.374;2022-10-04T21:28:46;16.65;;;14.55;;
40503;SDS011;42292;49.048;8.374;2022-10-04T21:31:12;19.75;;;14.18;;
40503;SDS011;42292;49.048;8.374;2022-10-04T21:33:38;16.77;;;13.40;;
40503;SDS011;42292;49.048;8.374;2022-10-04T21:36:03;14.67;;;12.73;;
40503;SDS011;42292;49.048;8.374;2022-10-04T21:38:30;19.38;;;13.88;;
40503;SDS011;42292;49.048;8.374;2022-10-04T21:40:56;19.83;;;15.05;;
40503;SDS011;42292;49.048;8.374;2022-10-04T21:43:22;18.92;;;14.77;;
40503;SDS011;42292;49.048;8.374;2022-10-04T21:45:48;20.17;;;15.57;;
40503;SDS011;42292;49.048;8.374;2022-10-04T21:48:14;17.90;;;15.05;;
40503;SDS011;42292;49.048;8.374;2022-10-04T21:50:41;19.47;;;15.80;;
40503;SDS011;42292;49.048;8.374;2022-10-04T21:53:07;18.65;;;14.98;;
40503;SDS011;42292;49.048;8.374;2022-10-04T21:55:33;20.53;;;15.40;;
40503;SDS011;42292;49.048;8.374;2022-10-04T21:57:58;20.48;;;16.67;;
40503;SDS011;42292;49.048;8.374;2022-10-04T22:00:24;21.02;;;17.10;;
40503;SDS011;42292;49.048;8.374;2022-10-04T22:02:49;21.45;;;16.63;;
40503;SDS011;42292;49.048;8.374;2022-10-04T22:05:17;22.98;;;17.15;;
40503;SDS011;42292;49.048;8.374;2022-10-04T22:07:43;19.38;;;16.20;;
40503;SDS011;42292;49.048;8.374;2022-10-04T22:10:08;17.65;;;15.65;;
40503;SDS011;42292;49.048;8.374;2022-10-04T22:12:34;21.73;;;16.90;;
40503;SDS011;42292;49.048;8.374;2022-10-04T22:15:00;24.03;;;17.63;;
40503;SDS011;42292;49.048;8.374;2022-10-04T22:17:25;21.80;;;17.13;;
40503;SDS011;42292;49.048;8.374;2022-10-04T22:19:51;23.55;;;18.05;;
40503;SDS011;42292;49.048;8.374;2022-10-04T22:22:18;20.77;;;15.77;;
40503;SDS011;42292;49.048;8.374;2022-10-04T22:24:46;18.73;;;14.00;;
40503;SDS011;42292;49.048;8.374;2022-10-04T22:27:16;16.42;;;14.38;;
40503;SDS011;42292;49.048;8.374;2022-10-04T22:29:43;18.87;;;13.63;;
40503;SDS011;42292;49.048;8.374;2022-10-04T22:35:05;16.83;;;13.52;;
40503;SDS011;42292;49.048;8.374;2022-10-04T22:37:36;18.40;;;14.20;;
40503;SDS011;42292;49.048;8.374;2022-10-04T22:40:02;17.80;;;15.03;;
40503;SDS011;42292;49.048;8.374;2022-10-04T22:42:30;21.58;;;14.80;;
40503;SDS011;42292;49.048;8.374;2022-10-04T22:45:03;21.33;;;14.73;;
40503;SDS011;42292;49.048;8.374;2022-10-04T22:47:33;19.35;;;13.85;;
40503;SDS011;42292;49.048;8.374;2022-10-04T22:50:04;17.23;;;13.23;;
40503;SDS011;42292;49.048;8.374;2022-10-04T22:52:43;15.80;;;13.93;;
40503;SDS011;42292;49.048;8.374;2022-10-04T22:55:15;17.05;;;13.32;;
40503;SDS011;42292;49.048;8.374;2022-10-04T22:57:42;16.27;;;13.40;;
40503;SDS011;42292;49.048;8.374;2022-10-04T23:00:10;16.15;;;12.80;;
40503;SDS011;42292;49.048;8.374;2022-10-04T23:02:39;17.80;;;14.10;;
40503;SDS011;42292;49.048;8.374;2022-10-04T23:07:40;16.50;;;12.40;;
40503;SDS011;42292;49.048;8.374;2022-10-04T23:10:06;18.08;;;13.18;;
40503;SDS011;42292;49.048;8.374;2022-10-04T23:12:34;19.75;;;12.60;;
40503;SDS011;42292;49.048;8.374;2022-10-04T23:15:02;14.93;;;12.60;;
40503;SDS011;42292;49.048;8.374;2022-10-04T23:17:35;18.07;;;13.77;;
40503;SDS011;42292;49.048;8.374;2022-10-04T23:20:13;16.13;;;12.88;;
40503;SDS011;42292;49.048;8.374;2022-10-04T23:22:44;19.40;;;14.10;;
40503;SDS011;42292;49.048;8.374;2022-10-04T23:25:16;59.95;;;46.95;;
40503;SDS011;42292;49.048;8.374;2022-10-04T23:27:51;22.55;;;17.02;;
40503;SDS011;42292;49.048;8.374;2022-10-04T23:30:23;21.02;;;17.35;;
40503;SDS011;42292;49.048;8.374;2022-10-04T23:32:52;15.57;;;12.45;;
40503;SDS011;42292;49.048;8.374;2022-10-04T23:35:28;14.52;;;12.90;;
40503;SDS011;42292;49.048;8.374;2022-10-04T23:37:58;14.80;;;12.68;;
40503;SDS011;42292;49.048;8.374;2022-10-04T23:40:27;17.63;;;13.02;;
40503;SDS011;42292;49.048;8.374;2022-10-04T23:42:53;13.75;;;12.15;;
40503;SDS011;42292;49.048;8.374;2022-10-04T23:45:23;15.68;;;12.20;;
40503;SDS011;42292;49.048;8.374;2022-10-04T23:47:56;17.88;;;13.60;;
40503;SDS011;42292;49.048;8.374;2022-10-04T23:50:28;17.65;;;13.50;;
40503;SDS011;42292;49.048;8.374;2022-10-04T23:52:57;18.00;;;13.65;;
40503;SDS011;42292;49.048;8.374;2022-10-04T23:55:40;16.35;;;13.63;;
40503;SDS011;42292;49.048;8.374;2022-10-04T23:58:11;18.33;;;13.80;;
